Time;durP1;ratioP1;P1;durP2;ratioP2;P2;SDS_P1;SDS_P2;PMS_P1;PMS_P2;Temp;Humidity;BMP_temperature;BMP_pressure;BME280_temperature;BME280_humidity;BME280_pressure;Samples;Min_cycle;Max_cycle;Signal;HPM_P1;HPM_P2
2023/10/03 00:01:10;;;;;;;103.93;32.92;;;;;;;;;;5134697;27;20043;-68
2023/10/03 00:03:36;;;;;;;107.32;33.25;;;;;;;;;;5134559;27;20090;-68
2023/10/03 00:06:03;;;;;;;108.27;32.37;;;;;;;;;;5116238;28;20095;-67
2023/10/03 00:08:29;;;;;;;105.22;31.08;;;;;;;;;;5116146;27;20169;-69
2023/10/03 00:10:56;;;;;;;104.77;32.07;;;;;;;;;;5134579;27;20055;-68
2023/10/03 00:13:24;;;;;;;99.65;30.08;;;;;;;;;;5116194;27;20280;-68
2023/10/03 00:15:50;;;;;;;96.25;30.02;;;;;;;;;;5116625;28;20099;-67
2023/10/03 00:18:16;;;;;;;94.88;28.00;;;;;;;;;;5134441;28;20043;-67
2023/10/03 00:20:42;;;;;;;100.05;29.17;;;;;;;;;;5134419;28;20035;-69
2023/10/03 00:23:09;;;;;;;89.32;27.33;;;;;;;;;;5099459;28;20092;-68
2023/10/03 00:25:35;;;;;;;92.03;29.50;;;;;;;;;;5099838;28;20094;-68
2023/10/03 00:28:01;;;;;;;;;;;;;;;;;;5116668;28;20284;-67
2023/10/03 00:30:30;;;;;;;88.95;26.55;;;;;;;;;;5134301;28;19926;-69
2023/10/03 00:33:02;;;;;;;90.55;25.90;;;;;;;;;;5134339;28;20049;-69
2023/10/03 00:35:29;;;;;;;91.68;26.15;;;;;;;;;;5134305;28;20054;-70
2023/10/03 00:37:55;;;;;;;89.70;26.75;;;;;;;;;;5134337;28;20126;-68
2023/10/03 00:42:52;;;;;;;81.30;24.95;;;;;;;;;;5134149;28;20050;-69
2023/10/03 00:45:22;;;;;;;82.80;24.45;;;;;;;;;;5134787;28;20040;-67
2023/10/03 00:47:53;;;;;;;92.93;27.27;;;;;;;;;;5134166;28;20057;-69
2023/10/03 00:50:20;;;;;;;85.13;26.77;;;;;;;;;;5134019;28;20079;-67
2023/10/03 00:52:49;;;;;;;76.50;23.83;;;;;;;;;;5115771;28;20051;-67
2023/10/03 00:55:16;;;;;;;88.38;24.40;;;;;;;;;;5134158;28;20082;-67
2023/10/03 00:57:43;;;;;;;84.72;24.75;;;;;;;;;;5134093;28;20047;-68
2023/10/03 01:00:16;;;;;;;81.70;23.83;;;;;;;;;;5115996;28;20101;-68
2023/10/03 01:03:00;;;;;;;80.22;23.05;;;;;;;;;;5134377;28;20058;-69
2023/10/03 01:05:27;;;;;;;83.40;23.58;;;;;;;;;;5134381;28;20092;-68
2023/10/03 01:07:53;;;;;;;86.78;25.23;;;;;;;;;;5116760;27;20478;-67
2023/10/03 01:10:21;;;;;;;87.60;24.08;;;;;;;;;;5137819;27;20050;-68
2023/10/03 01:12:48;;;;;;;76.90;22.48;;;;;;;;;;5137792;27;20134;-68
2023/10/03 01:15:22;;;;;;;89.28;24.95;;;;;;;;;;5137852;27;20455;-68
2023/10/03 01:17:52;;;;;;;86.90;23.98;;;;;;;;;;5138316;27;20055;-68
2023/10/03 01:20:24;;;;;;;87.97;22.60;;;;;;;;;;5119581;27;20051;-68
2023/10/03 01:22:54;;;;;;;85.38;23.60;;;;;;;;;;5119405;27;20399;-68
2023/10/03 01:25:20;;;;;;;80.45;23.60;;;;;;;;;;5119407;27;20122;-68
2023/10/03 01:27:47;;;;;;;79.80;22.60;;;;;;;;;;5137463;27;20057;-69
2023/10/03 01:30:13;;;;;;;79.78;23.38;;;;;;;;;;5137457;27;20054;-67
2023/10/03 01:32:43;;;;;;;79.80;22.45;;;;;;;;;;5137679;27;20437;-69
2023/10/03 01:35:10;;;;;;;87.15;24.00;;;;;;;;;;5137693;27;20455;-68
2023/10/03 01:37:38;;;;;;;88.68;23.92;;;;;;;;;;5119185;27;20533;-69
2023/10/03 01:40:08;;;;;;;84.07;21.50;;;;;;;;;;5137646;27;20478;-67
2023/10/03 01:42:36;;;;;;;97.53;23.80;;;;;;;;;;5137573;27;20044;-72
2023/10/03 01:45:02;;;;;;;82.00;22.58;;;;;;;;;;5119827;27;20049;-69
2023/10/03 01:47:29;;;;;;;85.60;24.10;;;;;;;;;;5137228;27;20399;-67
2023/10/03 01:49:55;;;;;;;82.53;23.85;;;;;;;;;;5119508;27;20297;-68
2023/10/03 01:52:21;;;;;;;87.43;25.00;;;;;;;;;;5137113;27;20078;-69
2023/10/03 01:54:49;;;;;;;80.70;23.80;;;;;;;;;;5136990;27;20047;-69
2023/10/03 01:57:15;;;;;;;89.47;24.55;;;;;;;;;;5137030;27;20099;-67
2023/10/03 01:59:41;;;;;;;92.20;24.17;;;;;;;;;;5119060;27;20387;-69
2023/10/03 02:02:07;;;;;;;91.43;24.90;;;;;;;;;;5136970;27;20104;-69
2023/10/03 02:04:34;;;;;;;84.43;24.05;;;;;;;;;;5137422;27;20281;-68
2023/10/03 02:07:00;;;;;;;80.35;22.33;;;;;;;;;;5137394;27;20383;-69
2023/10/03 02:09:26;;;;;;;88.90;23.30;;;;;;;;;;5101573;27;20485;-69
2023/10/03 02:11:53;;;;;;;95.53;25.17;;;;;;;;;;5136700;27;20064;-68
2023/10/03 02:14:19;;;;;;;98.22;23.77;;;;;;;;;;5101916;27;20043;-68
2023/10/03 02:16:46;;;;;;;92.50;25.33;;;;;;;;;;5137117;27;20051;-68
2023/10/03 02:19:12;;;;;;;98.32;26.10;;;;;;;;;;5136403;27;20118;-68
2023/10/03 02:21:41;;;;;;;95.87;24.77;;;;;;;;;;5136509;27;20043;-68
2023/10/03 02:24:08;;;;;;;96.25;25.65;;;;;;;;;;5118082;27;20391;-69
2023/10/03 02:26:34;;;;;;;93.53;24.75;;;;;;;;;;5136425;27;20047;-68
2023/10/03 02:29:00;;;;;;;96.47;24.33;;;;;;;;;;5136805;27;20096;-69
2023/10/03 02:31:26;;;;;;;93.75;22.85;;;;;;;;;;5101090;27;20288;-68
2023/10/03 02:33:53;;;;;;;87.28;23.95;;;;;;;;;;5118876;27;20088;-68
2023/10/03 02:36:19;;;;;;;85.80;23.05;;;;;;;;;;5136188;27;20395;-69
2023/10/03 02:38:47;;;;;;;86.00;22.83;;;;;;;;;;5118020;27;20050;-68
2023/10/03 02:41:14;;;;;;;95.03;24.45;;;;;;;;;;5136567;27;20403;-68
2023/10/03 02:43:43;;;;;;;88.72;23.55;;;;;;;;;;5117830;27;20100;-68
2023/10/03 02:46:12;;;;;;;90.85;24.77;;;;;;;;;;5135932;27;20054;-68
2023/10/03 02:48:38;;;;;;;94.60;25.45;;;;;;;;;;5117863;27;20129;-69
2023/10/03 02:51:09;;;;;;;95.15;24.38;;;;;;;;;;5117919;27;20390;-68
2023/10/03 02:53:35;;;;;;;97.65;25.00;;;;;;;;;;5118175;27;20179;-68
2023/10/03 02:56:04;;;;;;;100.60;24.63;;;;;;;;;;5118012;27;20047;-69
2023/10/03 02:58:30;;;;;;;94.22;23.63;;;;;;;;;;5136009;27;20051;-67
2023/10/03 03:00:57;;;;;;;94.47;23.97;;;;;;;;;;5136493;27;20074;-68
2023/10/03 03:03:29;;;;;;;93.82;24.80;;;;;;;;;;5135734;27;20052;-70
2023/10/03 03:05:57;;;;;;;92.38;24.60;;;;;;;;;;5117860;27;20043;-68
2023/10/03 03:08:27;;;;;;;87.25;23.45;;;;;;;;;;5118319;27;20050;-68
2023/10/03 03:10:57;;;;;;;98.70;23.35;;;;;;;;;;5136090;27;20051;-68
2023/10/03 03:13:24;;;;;;;98.60;23.95;;;;;;;;;;5135750;27;20108;-69
2023/10/03 03:15:59;;;;;;;83.07;22.50;;;;;;;;;;5135396;27;20440;-70
2023/10/03 03:18:26;;;;;;;91.07;23.55;;;;;;;;;;5135711;27;20187;-69
2023/10/03 03:21:02;;;;;;;96.47;23.35;;;;;;;;;;5118068;27;20086;-69
2023/10/03 03:23:37;;;;;;;88.40;22.45;;;;;;;;;;5135660;27;20387;-69
2023/10/03 03:26:20;;;;;;;88.93;22.05;;;;;;;;;;5117996;27;20039;-69
2023/10/03 03:28:48;;;;;;;88.15;21.30;;;;;;;;;;5135742;27;20058;-68
2023/10/03 03:31:20;;;;;;;86.20;21.92;;;;;;;;;;5116494;27;20126;-67
2023/10/03 03:33:47;;;;;;;84.32;19.92;;;;;;;;;;5135732;27;20155;-67
2023/10/03 03:36:17;;;;;;;86.07;21.25;;;;;;;;;;5134981;27;20133;-67
2023/10/03 03:38:44;;;;;;;83.95;20.45;;;;;;;;;;5135090;27;20047;-68
2023/10/03 03:41:12;;;;;;;83.72;21.48;;;;;;;;;;5116638;27;20138;-71
2023/10/03 03:43:38;;;;;;;83.30;20.35;;;;;;;;;;5134994;27;20043;-68
2023/10/03 03:46:05;;;;;;;85.55;19.90;;;;;;;;;;5134727;27;20046;-69
2023/10/03 03:48:34;;;;;;;;;;;;;;;;;;5135319;27;20051;-68
2023/10/03 03:51:12;;;;;;;80.75;19.38;;;;;;;;;;5116771;27;19920;-69
2023/10/03 03:53:44;;;;;;;83.55;20.10;;;;;;;;;;5135223;27;20383;-67
2023/10/03 03:56:12;;;;;;;85.30;18.60;;;;;;;;;;5134671;27;20050;-68
2023/10/03 03:58:45;;;;;;;84.57;22.00;;;;;;;;;;5116419;27;20054;-69
2023/10/03 04:01:15;;;;;;;83.93;20.52;;;;;;;;;;5117423;27;20363;-69
2023/10/03 04:03:45;;;;;;;79.28;18.63;;;;;;;;;;5134695;27;20043;-68
2023/10/03 04:06:11;;;;;;;90.43;20.92;;;;;;;;;;5117502;27;20151;-68
2023/10/03 04:08:38;;;;;;;76.70;19.67;;;;;;;;;;5135367;27;20110;-68
2023/10/03 04:11:07;;;;;;;89.57;20.85;;;;;;;;;;5134571;27;20061;-69
2023/10/03 04:13:39;;;;;;;78.20;19.60;;;;;;;;;;5134555;27;20043;-69
2023/10/03 04:16:11;;;;;;;83.25;19.60;;;;;;;;;;5117113;27;20484;-68
2023/10/03 04:18:37;;;;;;;86.88;20.85;;;;;;;;;;5134450;27;20046;-68
2023/10/03 04:21:04;;;;;;;84.00;19.50;;;;;;;;;;5134069;28;20511;-68
2023/10/03 04:23:32;;;;;;;84.07;19.80;;;;;;;;;;5134439;28;20273;-68
2023/10/03 04:25:59;;;;;;;84.35;19.65;;;;;;;;;;5099578;28;20047;-69
2023/10/03 04:28:25;;;;;;;90.40;21.58;;;;;;;;;;5134256;28;20044;-69
2023/10/03 04:30:53;;;;;;;86.40;20.88;;;;;;;;;;5116765;28;20046;-68
2023/10/03 04:33:21;;;;;;;76.15;20.15;;;;;;;;;;5116106;28;20141;-68
2023/10/03 04:35:48;;;;;;;84.30;20.70;;;;;;;;;;5116178;28;20043;-67
2023/10/03 04:38:16;;;;;;;86.47;20.27;;;;;;;;;;5135036;28;20117;-69
2023/10/03 04:40:43;;;;;;;81.53;20.02;;;;;;;;;;5134029;28;20061;-68
2023/10/03 04:43:15;;;;;;;;;;;;;;;;;;5136285;27;20218;-67
2023/10/03 04:45:42;;;;;;;74.93;18.88;;;;;;;;;;5138039;27;19923;-67
2023/10/03 04:48:10;;;;;;;87.18;19.17;;;;;;;;;;5138317;27;20126;-68
2023/10/03 04:50:37;;;;;;;78.70;19.40;;;;;;;;;;5137843;27;20561;-68
2023/10/03 04:53:05;;;;;;;75.78;18.73;;;;;;;;;;5139023;27;20328;-68
2023/10/03 04:55:32;;;;;;;76.18;19.50;;;;;;;;;;5138168;27;20049;-69
2023/10/03 04:57:58;;;;;;;76.72;18.35;;;;;;;;;;5138093;27;20054;-69
2023/10/03 05:00:24;;;;;;;81.03;19.00;;;;;;;;;;5119574;27;20035;-69
2023/10/03 05:02:51;;;;;;;76.85;18.10;;;;;;;;;;5120093;27;20323;-69
2023/10/03 05:05:18;;;;;;;75.40;18.40;;;;;;;;;;5137699;27;20131;-68
2023/10/03 05:07:45;;;;;;;80.65;17.42;;;;;;;;;;5137712;27;20424;-69
2023/10/03 05:10:11;;;;;;;71.50;15.73;;;;;;;;;;5119045;27;20039;-69
2023/10/03 05:12:38;;;;;;;66.78;15.95;;;;;;;;;;5119168;27;20047;-67
2023/10/03 05:15:07;;;;;;;61.58;14.93;;;;;;;;;;5138026;27;20065;-69
2023/10/03 05:17:33;;;;;;;69.70;16.35;;;;;;;;;;5137135;27;20079;-69
2023/10/03 05:20:01;;;;;;;56.78;14.63;;;;;;;;;;5119263;27;20389;-69
2023/10/03 05:22:28;;;;;;;57.45;14.60;;;;;;;;;;5137813;27;20043;-70
2023/10/03 05:24:54;;;;;;;53.72;14.48;;;;;;;;;;5118842;27;20047;-69
2023/10/03 05:27:20;;;;;;;59.13;16.37;;;;;;;;;;5137177;27;20108;-71
2023/10/03 05:29:46;;;;;;;55.45;13.38;;;;;;;;;;5119620;27;20126;-72
2023/10/03 05:32:14;;;;;;;55.75;13.30;;;;;;;;;;5102728;27;20427;-70
2023/10/03 05:34:40;;;;;;;58.65;15.82;;;;;;;;;;5137679;27;20051;-70
2023/10/03 05:37:06;;;;;;;53.53;14.65;;;;;;;;;;5119023;27;20123;-69
2023/10/03 05:39:32;;;;;;;58.10;14.20;;;;;;;;;;5136818;27;20043;-69
2023/10/03 05:42:01;;;;;;;53.90;13.98;;;;;;;;;;5137719;27;20280;-71
2023/10/03 05:44:27;;;;;;;64.10;14.00;;;;;;;;;;5137487;27;20391;-69
2023/10/03 05:46:55;;;;;;;57.33;13.73;;;;;;;;;;5136929;27;20039;-69
2023/10/03 05:49:22;;;;;;;67.78;14.32;;;;;;;;;;5137247;27;20402;-72
2023/10/03 05:51:49;;;;;;;51.03;14.63;;;;;;;;;;5137528;27;20047;-70
2023/10/03 05:54:15;;;;;;;47.35;11.23;;;;;;;;;;5118213;27;20059;-70
2023/10/03 05:56:41;;;;;;;49.92;12.95;;;;;;;;;;5101913;27;20055;-71
2023/10/03 05:59:07;;;;;;;34.47;11.63;;;;;;;;;;5118882;27;20517;-70
2023/10/03 06:01:33;;;;;;;49.77;12.13;;;;;;;;;;5137455;27;20308;-70
2023/10/03 06:03:59;;;;;;;53.25;12.80;;;;;;;;;;5101704;27;20043;-68
2023/10/03 06:06:28;;;;;;;52.87;13.13;;;;;;;;;;5119277;27;20078;-69
2023/10/03 06:08:54;;;;;;;49.67;12.60;;;;;;;;;;5136525;27;20292;-70
2023/10/03 06:11:20;;;;;;;44.40;12.03;;;;;;;;;;5137306;27;20043;-71
2023/10/03 06:13:46;;;;;;;39.27;10.50;;;;;;;;;;5136993;27;20308;-70
2023/10/03 06:16:14;;;;;;;41.33;9.63;;;;;;;;;;5136439;27;20039;-71
2023/10/03 06:18:40;;;;;;;46.40;11.30;;;;;;;;;;5117995;27;20089;-71
2023/10/03 06:21:10;;;;;;;39.10;8.70;;;;;;;;;;5136263;27;20134;-68
2023/10/03 06:23:39;;;;;;;43.20;9.80;;;;;;;;;;5117823;27;20083;-70
2023/10/03 06:26:06;;;;;;;37.15;8.68;;;;;;;;;;5117718;27;20046;-70
2023/10/03 06:28:32;;;;;;;54.88;9.82;;;;;;;;;;5135794;27;20043;-72
2023/10/03 06:30:58;;;;;;;49.53;10.90;;;;;;;;;;5136701;27;20050;-70
2023/10/03 06:33:24;;;;;;;79.90;13.40;;;;;;;;;;5117379;27;20043;-70
2023/10/03 06:35:50;;;;;;;157.43;16.53;;;;;;;;;;5135966;27;20043;-70
2023/10/03 06:38:17;;;;;;;66.93;11.57;;;;;;;;;;5135971;27;20281;-68
2023/10/03 06:40:43;;;;;;;164.43;19.73;;;;;;;;;;5135906;27;20169;-70
2023/10/03 06:43:10;;;;;;;;;;;;;;;;;;5136308;27;20047;-69
2023/10/03 06:45:36;;;;;;;44.33;8.77;;;;;;;;;;5136214;27;19930;-70
2023/10/03 06:48:03;;;;;;;45.13;7.63;;;;;;;;;;5135706;27;20043;-69
2023/10/03 06:50:30;;;;;;;25.77;7.53;;;;;;;;;;5117117;27;20127;-69
2023/10/03 06:52:56;;;;;;;36.17;6.60;;;;;;;;;;5117599;27;20058;-70
2023/10/03 06:55:22;;;;;;;33.38;7.20;;;;;;;;;;5135578;27;20047;-71
2023/10/03 06:57:48;;;;;;;36.78;8.13;;;;;;;;;;5135528;27;20156;-69
2023/10/03 07:00:16;;;;;;;34.57;7.90;;;;;;;;;;5135593;27;20035;-70
2023/10/03 07:02:42;;;;;;;47.40;8.40;;;;;;;;;;5135658;27;20335;-69
2023/10/03 07:05:08;;;;;;;45.08;7.72;;;;;;;;;;5135131;27;20391;-71
2023/10/03 07:07:35;;;;;;;54.22;8.40;;;;;;;;;;5116899;27;20047;-70
2023/10/03 07:10:01;;;;;;;70.03;8.93;;;;;;;;;;5135748;27;20043;-72
2023/10/03 07:12:29;;;;;;;36.70;7.05;;;;;;;;;;5135202;27;20043;-71
2023/10/03 07:14:55;;;;;;;37.83;7.78;;;;;;;;;;5135240;27;20168;-74
2023/10/03 07:17:23;;;;;;;32.13;7.22;;;;;;;;;;5135159;27;20042;-70
2023/10/03 07:19:49;;;;;;;23.33;6.78;;;;;;;;;;5116846;27;20134;-68
2023/10/03 07:22:15;;;;;;;28.77;7.03;;;;;;;;;;5135102;27;20043;-69
2023/10/03 07:24:43;;;;;;;32.63;7.40;;;;;;;;;;5116778;27;20500;-68
2023/10/03 07:27:09;;;;;;;34.60;7.43;;;;;;;;;;5116936;27;20090;-69
2023/10/03 07:29:42;;;;;;;40.67;7.07;;;;;;;;;;5134865;27;20050;-70
2023/10/03 07:32:12;;;;;;;34.50;8.27;;;;;;;;;;5118566;27;20447;-70
2023/10/03 07:34:43;;;;;;;23.02;6.05;;;;;;;;;;5117159;27;20133;-68
2023/10/03 07:37:16;;;;;;;44.50;7.85;;;;;;;;;;5135041;27;20099;-70
2023/10/03 07:39:42;;;;;;;25.80;7.07;;;;;;;;;;5134542;27;20040;-70
2023/10/03 07:42:09;;;;;;;33.17;8.27;;;;;;;;;;5116978;27;20119;-70
2023/10/03 07:44:38;;;;;;;30.95;7.13;;;;;;;;;;5134734;27;20043;-69
2023/10/03 07:47:04;;;;;;;29.40;8.13;;;;;;;;;;5116605;27;20091;-70
2023/10/03 07:49:31;;;;;;;26.45;6.10;;;;;;;;;;5116403;27;20043;-71
2023/10/03 07:51:59;;;;;;;25.85;5.97;;;;;;;;;;5116458;27;20095;-69
2023/10/03 07:54:32;;;;;;;24.88;5.85;;;;;;;;;;5134682;27;20051;-69
2023/10/03 07:57:08;;;;;;;27.25;5.95;;;;;;;;;;5134837;27;20047;-70
2023/10/03 07:59:34;;;;;;;25.70;5.28;;;;;;;;;;5134867;27;20455;-70
2023/10/03 08:02:05;;;;;;;21.40;5.30;;;;;;;;;;5134531;27;20043;-70
2023/10/03 08:04:31;;;;;;;27.70;5.78;;;;;;;;;;5116856;27;20054;-70
2023/10/03 08:06:58;;;;;;;29.58;6.85;;;;;;;;;;5134216;27;20043;-71
2023/10/03 08:09:25;;;;;;;27.65;6.43;;;;;;;;;;5116186;27;20043;-70
2023/10/03 08:11:52;;;;;;;23.95;7.00;;;;;;;;;;5134487;27;20136;-69
2023/10/03 08:14:18;;;;;;;;;;;;;;;;;;5117512;27;20047;-68
2023/10/03 08:16:45;;;;;;;29.70;7.28;;;;;;;;;;5134212;27;20010;-68
2023/10/03 08:19:20;;;;;;;;;;;;;;;;;;5134762;27;20051;-68
2023/10/03 08:21:48;;;;;;;43.65;7.82;;;;;;;;;;5135075;27;19920;-70
2023/10/03 08:24:18;;;;;;;34.72;6.97;;;;;;;;;;5116116;28;20047;-70
2023/10/03 08:26:50;;;;;;;28.05;6.05;;;;;;;;;;5116761;28;20129;-70
2023/10/03 08:29:26;;;;;;;27.30;5.20;;;;;;;;;;5134819;28;20059;-72
2023/10/03 08:31:59;;;;;;;25.73;4.72;;;;;;;;;;5117619;28;20490;-71
2023/10/03 08:34:30;;;;;;;23.98;4.70;;;;;;;;;;5135106;28;20039;-72
2023/10/03 08:37:00;;;;;;;27.00;5.47;;;;;;;;;;5115986;28;20126;-70
2023/10/03 08:39:26;;;;;;;24.13;4.90;;;;;;;;;;5134215;28;20047;-68
2023/10/03 08:42:12;;;;;;;24.70;6.22;;;;;;;;;;5115514;28;20487;-69
2023/10/03 08:44:52;;;;;;;31.55;7.53;;;;;;;;;;5116235;28;20138;-75
2023/10/03 08:47:29;;;;;;;21.70;4.88;;;;;;;;;;5134174;28;20046;-71
2023/10/03 08:50:11;;;;;;;25.48;5.50;;;;;;;;;;5134003;28;20035;-68
2023/10/03 08:52:39;;;;;;;19.92;4.75;;;;;;;;;;5116778;28;20051;-68
2023/10/03 08:55:09;;;;;;;24.17;4.80;;;;;;;;;;5115776;28;20046;-71
2023/10/03 08:57:35;;;;;;;23.48;3.95;;;;;;;;;;5134040;28;20066;-70
2023/10/03 09:00:05;;;;;;;25.45;3.42;;;;;;;;;;5116559;28;20155;-68
2023/10/03 09:02:45;;;;;;;25.60;2.97;;;;;;;;;;5133860;28;20560;-70
2023/10/03 09:05:15;;;;;;;16.95;2.55;;;;;;;;;;5134478;28;20129;-69
2023/10/03 09:07:44;;;;;;;12.10;1.70;;;;;;;;;;5100409;28;20360;-71
2023/10/03 09:10:22;;;;;;;11.57;2.00;;;;;;;;;;5133794;28;20039;-68
2023/10/03 09:12:49;;;;;;;15.40;2.65;;;;;;;;;;5134649;28;20184;-67
2023/10/03 09:15:17;;;;;;;18.98;2.05;;;;;;;;;;5115370;28;20177;-70
2023/10/03 09:17:44;;;;;;;14.70;1.05;;;;;;;;;;5098686;28;20534;-72
2023/10/03 09:20:20;;;;;;;11.68;1.27;;;;;;;;;;5133832;28;20039;-69
2023/10/03 09:22:46;;;;;;;9.93;0.90;;;;;;;;;;5134239;28;20398;-69
2023/10/03 09:25:15;;;;;;;;;;;;;;;;;;5134877;28;20047;-69
2023/10/03 09:27:41;;;;;;;9.65;0.98;;;;;;;;;;5133594;27;20024;-69
2023/10/03 09:30:22;;;;;;;10.82;0.57;;;;;;;;;;5118160;27;20051;-72
2023/10/03 09:32:50;;;;;;;9.85;0.70;;;;;;;;;;5137875;27;20050;-68
2023/10/03 09:35:17;;;;;;;11.82;1.38;;;;;;;;;;5137347;27;20126;-69
2023/10/03 09:37:48;;;;;;;10.63;0.52;;;;;;;;;;5137523;27;20096;-68
2023/10/03 09:40:18;;;;;;;8.88;0.50;;;;;;;;;;5136809;27;20055;-71
2023/10/03 09:42:48;;;;;;;10.20;0.68;;;;;;;;;;5137120;27;20478;-69
2023/10/03 09:45:27;;;;;;;9.20;0.60;;;;;;;;;;5102258;27;20047;-69
2023/10/03 09:47:58;;;;;;;6.47;0.75;;;;;;;;;;5118958;27;20062;-70
2023/10/03 09:50:27;;;;;;;10.30;0.65;;;;;;;;;;5137287;27;20436;-69
2023/10/03 09:52:54;;;;;;;4.97;0.30;;;;;;;;;;5120139;27;20379;-69
2023/10/03 09:55:21;;;;;;;3.15;0.22;;;;;;;;;;5138406;27;20078;-70
2023/10/03 09:57:54;;;;;;;5.25;0.30;;;;;;;;;;5137212;27;20051;-73
2023/10/03 10:00:25;;;;;;;11.80;0.50;;;;;;;;;;5137738;27;20047;-70
2023/10/03 10:02:55;;;;;;;11.05;0.50;;;;;;;;;;5137155;27;20055;-70
2023/10/03 10:05:25;;;;;;;9.32;0.43;;;17.00;99.90;;;;;;5137040;27;20047;-71
2023/10/03 10:08:08;;;;;;;10.52;0.50;;;;;;;;;;5136780;27;20039;-70
2023/10/03 10:10:35;;;;;;;8.80;0.40;;;;;;;;;;5137284;27;20043;-72
2023/10/03 10:13:00;;;;;;;;;;;;;;;;;;5137053;27;20043;-70
2023/10/03 10:15:27;;;;;;;11.50;0.40;;;;;;;;;;5137112;27;19927;-70
2023/10/03 10:17:56;;;;;;;6.73;0.87;;;;;;;;;;5137266;27;20371;-69
2023/10/03 10:20:38;;;;;;;6.93;0.60;;;;;;;;;;5118097;27;20043;-69
2023/10/03 10:23:06;;;;;;;8.85;0.52;;;;;;;;;;5136944;27;20134;-69
2023/10/03 10:25:42;;;;;;;4.22;0.30;;;;;;;;;;5136868;27;20047;-69
2023/10/03 10:28:12;;;;;;;7.50;0.30;;;;;;;;;;5136398;27;20493;-68
2023/10/03 10:30:39;;;;;;;7.65;0.60;;;;;;;;;;5118064;27;20050;-68
2023/10/03 10:33:18;;;;;;;11.75;0.52;;;;;;;;;;5117827;27;20047;-70
2023/10/03 10:35:59;;;;;;;5.65;0.50;;;;;;;;;;5101324;27;20055;-71
2023/10/03 10:38:32;;;;;;;4.38;0.60;;;;;;;;;;5136242;27;20054;-70
2023/10/03 10:41:26;;;;;;;2.80;0.20;;;;;;;;;;5117513;27;20051;-68
2023/10/03 10:44:13;;;;;;;10.30;0.52;;;;;;;;;;5118537;27;20360;-68
2023/10/03 10:46:52;;;;;;;8.57;0.40;;;;;;;;;;5136067;27;20057;-70
2023/10/03 10:49:37;;;;;;;5.13;0.28;;;;;;;;;;5136203;27;20050;-69
2023/10/03 10:52:07;;;;;;;4.95;0.20;;;;;;;;;;5135920;27;20089;-67
2023/10/03 10:54:35;;;;;;;7.03;0.57;;;;;;;;;;5117650;27;20130;-69
2023/10/03 10:57:03;;;;;;;8.88;0.60;;;;;;;;;;5117633;27;20085;-69
2023/10/03 10:59:29;;;;;;;6.65;0.50;;;;;;;;;;5100775;27;20047;-69
2023/10/03 11:01:57;;;;;;;9.65;0.70;;;;;;;;;;5117396;27;20142;-68
2023/10/03 11:04:27;;;;;;;9.77;0.50;;;;;;;;;;5117550;27;20126;-69
2023/10/03 11:06:53;;;;;;;4.65;0.30;;;;;;;;;;5117792;27;20043;-69
2023/10/03 11:09:20;;;;;;;9.88;0.45;;;;;;;;;;5135531;27;20082;-71
2023/10/03 11:11:47;;;;;;;10.35;1.20;;;;;;;;;;5117429;27;20399;-71
2023/10/03 11:14:13;;;;;;;13.60;1.05;;;;;;;;;;5100599;27;20432;-69
2023/10/03 11:16:39;;;;;;;8.50;0.93;;;;;;;;;;5135388;27;20051;-70
2023/10/03 11:19:06;;;;;;;5.17;0.60;;;;;;;;;;5101014;27;20084;-69
2023/10/03 11:21:33;;;;;;;10.70;0.80;;;;;;;;;;5135240;27;20146;-70
2023/10/03 11:24:08;;;;;;;12.88;0.70;;;;;;;;;;5135130;27;20043;-69
2023/10/03 11:26:54;;;;;;;11.23;0.80;;;;;;;;;;5135148;27;20049;-71
2023/10/03 11:29:36;;;;;;;7.55;0.70;;;;;;;;;;5135250;27;20074;-69
2023/10/03 11:32:03;;;;;;;13.40;0.90;;;;;;;;;;5116982;27;20078;-71
2023/10/03 11:34:31;;;;;;;10.68;0.60;;;;;;;;;;5134970;27;20054;-69
2023/10/03 11:36:58;;;;;;;16.25;0.80;;;;;;;;;;5117410;27;20364;-70
2023/10/03 11:39:26;;;;;;;;;;;;;;;;;;5135696;27;20135;-70
2023/10/03 11:41:52;;;;;;;5.75;0.47;;;;;;;;;;5134923;27;20263;-68
2023/10/03 11:44:19;;;;;;;12.50;0.80;;;;;;;;;;5135279;27;20055;-68
2023/10/03 11:46:46;;;;;;;12.32;1.05;;;;;;;;;;5134763;27;20547;-69
2023/10/03 11:49:13;;;;;;;7.43;0.88;;;;;;;;;;5134611;27;20459;-70
2023/10/03 11:51:42;;;;;;;;;;;;;;;;;;5116629;27;20043;-69
2023/10/03 11:54:08;;;;;;;10.55;0.98;;;;;;;;;;5134730;27;19920;-67
2023/10/03 11:56:42;;;;;;;15.57;1.20;;;;;;;;;;5134824;27;20197;-69
2023/10/03 11:59:08;;;;;;;12.55;1.20;;;;;;;;;;5116490;27;20050;-68
2023/10/03 12:01:35;;;;;;;7.32;0.80;;;;;;;;;;5134809;27;20088;-69
2023/10/03 12:04:01;;;;;;;;;;;;;;;;;;5117264;27;20113;-69
2023/10/03 12:06:27;;;;;;;9.73;1.15;;;;;;;;;;5135071;27;20020;-70
2023/10/03 12:08:53;;;;;;;11.65;1.50;;;;;;;;;;5117339;27;20366;-67
2023/10/03 12:11:20;;;;;;;10.00;1.10;;;;;;;;;;5116163;28;20079;-69
2023/10/03 12:13:46;;;;;;;16.10;1.30;;;;;;;;;;5134425;27;20051;-74
2023/10/03 12:16:16;;;;;;;16.25;1.42;;;;;;;;;;5135156;27;20047;-68
2023/10/03 12:18:42;;;;;;;15.10;1.92;;;;;;;;;;5116380;28;20051;-68
2023/10/03 12:21:09;;;;;;;14.20;1.50;;;;;;;;;;5134679;27;20039;-70
2023/10/03 12:23:36;;;;;;;14.93;1.95;;;;;;;;;;5116312;28;20046;-69
2023/10/03 12:26:02;;;;;;;18.60;2.33;;;;;;;;;;5134304;28;20122;-69
2023/10/03 12:28:28;;;;;;;19.47;1.97;;;;;;;;;;5134626;28;20043;-70
2023/10/03 12:30:54;;;;;;;19.90;2.00;;;;;;;;;;5134294;28;20496;-69
2023/10/03 12:33:20;;;;;;;21.70;2.80;;;;;;;;;;5134253;28;20130;-71
2023/10/03 12:35:47;;;;;;;18.35;2.13;;;;;;;;;;5134360;28;20355;-71
2023/10/03 12:38:15;;;;;;;;;;;;;;;;;;5134646;28;20074;-71
2023/10/03 12:40:43;;;;;;;16.13;1.92;;;;;;;;;;5134029;28;20050;-70
2023/10/03 12:43:10;;;;;;;24.23;2.65;;;;;;;;;;5116148;28;20051;-70
2023/10/03 12:45:36;;;;;;;;;;;;;;;;;;5134492;28;20054;-70
2023/10/03 12:48:03;;;;;;;16.33;2.15;;;;;;;;;;5115617;28;20022;-70
2023/10/03 12:50:29;;;;;;;13.57;2.22;;;;;;;;;;5133938;28;20049;-69
2023/10/03 12:52:57;;;;;;;16.30;2.40;;;;;;;;;;5133776;28;20047;-69
2023/10/03 12:55:27;;;;;;;18.13;2.03;;;;;;;;;;5133931;28;20047;-71
2023/10/03 12:57:56;;;;;;;22.77;3.28;;;;;;;;;;5134379;28;20130;-70
2023/10/03 13:00:23;;;;;;;14.90;2.00;;;;;;;;;;5115926;28;20043;-70
2023/10/03 13:02:50;;;;;;;22.45;2.92;;;;;;;;;;5116160;27;20047;-70
2023/10/03 13:05:17;;;;;;;15.70;2.60;;;;;;;;;;5119383;27;20519;-73
2023/10/03 13:07:45;;;;;;;17.02;2.28;;;;;;;;;;5138004;27;20417;-71
2023/10/03 13:10:12;;;;;;;22.58;3.15;;;;;;;;;;5119576;27;20050;-71
2023/10/03 13:12:42;;;;;;;18.88;2.83;;;;;;;;;;5138238;27;20054;-71
2023/10/03 13:15:14;;;;;;;18.75;2.67;;;;;;;;;;5137676;27;20047;-70
2023/10/03 13:17:41;;;;;;;25.95;3.50;;;;;;;;;;5138055;27;20167;-69
2023/10/03 13:20:11;;;;;;;26.48;3.40;;;;;;;;;;5137428;27;20483;-71
2023/10/03 13:22:40;;;;;;;22.73;2.97;;;;;;;;;;5119467;27;20058;-70
2023/10/03 13:25:08;;;;;;;21.40;2.42;;;;;;;;;;5120162;27;20422;-70
2023/10/03 13:27:35;;;;;;;20.90;2.85;;;;;;;;;;5137430;27;20068;-70
2023/10/03 13:30:02;;;;;;;20.42;3.00;;;;;;;;;;5137423;27;20047;-72
2023/10/03 13:32:28;;;;;;;31.38;3.10;;;;;;;;;;5137328;27;20047;-70
2023/10/03 13:34:55;;;;;;;20.33;2.40;;;;;;;;;;5118950;27;20546;-69
2023/10/03 13:37:21;;;;;;;19.17;2.70;;;;;;;;;;5137303;27;20082;-72
2023/10/03 13:39:50;;;;;;;25.73;2.47;;;;;;;;;;5137451;27;20272;-70
2023/10/03 13:42:16;;;;;;;20.25;2.67;;;;;;;;;;5119078;27;20051;-69
2023/10/03 13:44:44;;;;;;;19.33;2.33;;;;;;;;;;5137182;27;20043;-70
2023/10/03 13:47:10;;;;;;;19.27;2.38;;;;;;;;;;5137265;27;20051;-72
2023/10/03 13:49:37;;;;;;;15.65;1.80;;;;;;;;;;5118798;27;20079;-71
2023/10/03 13:52:04;;;;;;;23.57;2.57;;;;;;;;;;5137226;27;20107;-69
2023/10/03 13:54:35;;;;;;;15.63;2.05;;;;;;;;;;5137077;27;20126;-70
2023/10/03 13:57:05;;;;;;;26.33;2.80;;;;;;;;;;5137964;27;20047;-71
2023/10/03 13:59:34;;;;;;;28.77;2.88;;;;;;;;;;5136973;27;20496;-71
2023/10/03 14:02:00;;;;;;;28.45;4.05;;;;;;;;;;5136933;27;20050;-71
2023/10/03 14:04:27;;;;;;;18.65;2.60;;;;;;;;;;5118829;27;20062;-70
2023/10/03 14:06:56;;;;;;;21.75;2.03;;;;;;;;;;5137356;27;20046;-70
2023/10/03 14:09:26;;;;;;;24.48;2.47;;;;;;;;;;5118580;27;20039;-71
2023/10/03 14:12:05;;;;;;;21.20;2.15;;;;;;;;;;5137537;27;20047;-71
2023/10/03 14:14:34;;;;;;;23.88;2.42;;;;;;;;;;5118437;27;20053;-70
2023/10/03 14:17:01;;;;;;;20.00;1.92;;;;;;;;;;5118896;27;20468;-70
2023/10/03 14:19:27;;;;;;;22.23;1.83;;;;;;;;;;5118250;27;20040;-70
2023/10/03 14:21:54;;;;;;;16.98;2.03;;;;;;;;;;5118745;27;20379;-71
2023/10/03 14:24:20;;;;;;;16.10;1.80;;;;;;;;;;5136430;27;20096;-71
2023/10/03 14:26:46;;;;;;;15.60;1.73;;;;;;;;;;5084197;27;20507;-70
2023/10/03 14:29:12;;;;;;;21.92;2.20;;;;;;;;;;5136244;27;20047;-70
2023/10/03 14:31:38;;;;;;;14.83;1.30;;;;;;;;;;5117844;27;20507;-69
2023/10/03 14:34:05;;;;;;;17.50;1.95;;;;;;;;;;5101260;27;20289;-70
2023/10/03 14:36:32;;;;;;;17.67;1.60;;;;;;;;;;5101291;27;20050;-70
2023/10/03 14:38:58;;;;;;;15.73;1.50;;;;;;;;;;5136163;27;20051;-73